sensor_id;sensor_type;location;lat;lon;timestamp;P1;durP1;ratioP1;P2;durP2;ratioP2
17504;SDS011;8870;50.950;11.762;2023-02-17T00:03:17;8.70;;;7.80;;
17504;SDS011;8870;50.950;11.762;2023-02-17T00:08:48;8.20;;;7.40;;
17504;SDS011;8870;50.950;11.762;2023-02-17T00:14:11;9.18;;;7.30;;
17504;SDS011;8870;50.950;11.762;2023-02-17T00:19:42;9.25;;;7.30;;
17504;SDS011;8870;50.950;11.762;2023-02-17T00:25:00;9.10;;;7.10;;
17504;SDS011;8870;50.950;11.762;2023-02-17T00:30:35;8.23;;;6.80;;
17504;SDS011;8870;50.950;11.762;2023-02-17T00:35:53;8.35;;;7.05;;
17504;SDS011;8870;50.950;11.762;2023-02-17T00:41:24;7.13;;;6.35;;
17504;SDS011;8870;50.950;11.762;2023-02-17T00:46:46;7.47;;;6.32;;
17504;SDS011;8870;50.950;11.762;2023-02-17T00:52:17;6.72;;;5.78;;
17504;SDS011;8870;50.950;11.762;2023-02-17T00:57:35;7.05;;;6.30;;
17504;SDS011;8870;50.950;11.762;2023-02-17T01:03:09;7.97;;;6.35;;
17504;SDS011;8870;50.950;11.762;2023-02-17T01:08:29;7.25;;;5.90;;
17504;SDS011;8870;50.950;11.762;2023-02-17T01:14:01;6.60;;;5.95;;
17504;SDS011;8870;50.950;11.762;2023-02-17T01:19:24;6.40;;;5.80;;
17504;SDS011;8870;50.950;11.762;2023-02-17T01:24:56;7.20;;;6.15;;
17504;SDS011;8870;50.950;11.762;2023-02-17T01:30:14;6.90;;;6.05;;
17504;SDS011;8870;50.950;11.762;2023-02-17T01:35:50;7.00;;;6.22;;
17504;SDS011;8870;50.950;11.762;2023-02-17T01:41:09;7.68;;;5.97;;
17504;SDS011;8870;50.950;11.762;2023-02-17T01:46:43;9.27;;;6.28;;
17504;SDS011;8870;50.950;11.762;2023-02-17T01:52:07;6.15;;;5.60;;
17504;SDS011;8870;50.950;11.762;2023-02-17T01:57:44;6.88;;;5.30;;
17504;SDS011;8870;50.950;11.762;2023-02-17T02:03:13;6.28;;;5.15;;
17504;SDS011;8870;50.950;11.762;2023-02-17T02:08:50;6.60;;;5.20;;
17504;SDS011;8870;50.950;11.762;2023-02-17T02:14:13;5.63;;;4.85;;
17504;SDS011;8870;50.950;11.762;2023-02-17T02:25:45;5.55;;;5.03;;
17504;SDS011;8870;50.950;11.762;2023-02-17T02:31:48;7.55;;;5.35;;
17504;SDS011;8870;50.950;11.762;2023-02-17T02:37:23;8.25;;;5.40;;
17504;SDS011;8870;50.950;11.762;2023-02-17T02:42:56;5.65;;;5.03;;
17504;SDS011;8870;50.950;11.762;2023-02-17T02:48:18;5.45;;;4.90;;
17504;SDS011;8870;50.950;11.762;2023-02-17T02:54:05;5.72;;;4.65;;
17504;SDS011;8870;50.950;11.762;2023-02-17T02:59:40;5.38;;;4.68;;
17504;SDS011;8870;50.950;11.762;2023-02-17T03:05:18;6.30;;;4.50;;
17504;SDS011;8870;50.950;11.762;2023-02-17T03:11:02;5.75;;;4.55;;
17504;SDS011;8870;50.950;11.762;2023-02-17T03:16:21;5.45;;;4.68;;
17504;SDS011;8870;50.950;11.762;2023-02-17T03:21:54;5.28;;;4.40;;
17504;SDS011;8870;50.950;11.762;2023-02-17T03:27:18;6.03;;;4.68;;
17504;SDS011;8870;50.950;11.762;2023-02-17T03:32:49;5.45;;;4.32;;
17504;SDS011;8870;50.950;11.762;2023-02-17T03:38:09;5.60;;;4.70;;
17504;SDS011;8870;50.950;11.762;2023-02-17T03:43:43;5.53;;;4.75;;
17504;SDS011;8870;50.950;11.762;2023-02-17T03:49:01;4.88;;;4.38;;
17504;SDS011;8870;50.950;11.762;2023-02-17T03:54:32;4.88;;;4.38;;
17504;SDS011;8870;50.950;11.762;2023-02-17T03:59:53;5.00;;;4.50;;
17504;SDS011;8870;50.950;11.762;2023-02-17T04:05:24;6.05;;;4.90;;
17504;SDS011;8870;50.950;11.762;2023-02-17T04:10:57;5.35;;;4.85;;
17504;SDS011;8870;50.950;11.762;2023-02-17T04:16:19;5.25;;;4.47;;
17504;SDS011;8870;50.950;11.762;2023-02-17T04:21:51;4.70;;;4.30;;
17504;SDS011;8870;50.950;11.762;2023-02-17T04:27:09;4.50;;;4.10;;
17504;SDS011;8870;50.950;11.762;2023-02-17T04:32:44;5.90;;;4.18;;
17504;SDS011;8870;50.950;11.762;2023-02-17T04:38:02;4.60;;;4.20;;
17504;SDS011;8870;50.950;11.762;2023-02-17T04:43:34;4.70;;;4.05;;
17504;SDS011;8870;50.950;11.762;2023-02-17T04:48:56;4.35;;;3.72;;
17504;SDS011;8870;50.950;11.762;2023-02-17T04:54:26;3.88;;;3.53;;
17504;SDS011;8870;50.950;11.762;2023-02-17T04:59:46;3.65;;;3.35;;
17504;SDS011;8870;50.950;11.762;2023-02-17T05:05:19;4.22;;;3.60;;
17504;SDS011;8870;50.950;11.762;2023-02-17T05:10:38;4.10;;;3.75;;
17504;SDS011;8870;50.950;11.762;2023-02-17T05:16:09;3.85;;;3.55;;
17504;SDS011;8870;50.950;11.762;2023-02-17T05:21:30;3.70;;;3.40;;
17504;SDS011;8870;50.950;11.762;2023-02-17T05:27:01;4.30;;;3.90;;
17504;SDS011;8870;50.950;11.762;2023-02-17T05:32:20;4.43;;;4.03;;
17504;SDS011;8870;50.950;11.762;2023-02-17T05:37:54;4.70;;;4.10;;
17504;SDS011;8870;50.950;11.762;2023-02-17T05:43:13;4.60;;;4.20;;
17504;SDS011;8870;50.950;11.762;2023-02-17T05:48:43;4.55;;;4.15;;
17504;SDS011;8870;50.950;11.762;2023-02-17T05:54:05;4.55;;;4.15;;
17504;SDS011;8870;50.950;11.762;2023-02-17T05:59:36;6.05;;;4.10;;
17504;SDS011;8870;50.950;11.762;2023-02-17T06:05:01;5.25;;;4.47;;
17504;SDS011;8870;50.950;11.762;2023-02-17T06:10:35;6.23;;;4.67;;
17504;SDS011;8870;50.950;11.762;2023-02-17T06:15:53;4.80;;;4.30;;
17504;SDS011;8870;50.950;11.762;2023-02-17T06:21:24;5.65;;;4.20;;
17504;SDS011;8870;50.950;11.762;2023-02-17T06:26:45;4.97;;;4.47;;
17504;SDS011;8870;50.950;11.762;2023-02-17T06:32:16;4.90;;;4.45;;
17504;SDS011;8870;50.950;11.762;2023-02-17T06:37:35;4.68;;;4.20;;
17504;SDS011;8870;50.950;11.762;2023-02-17T06:43:08;4.75;;;4.30;;
17504;SDS011;8870;50.950;11.762;2023-02-17T06:48:26;4.30;;;3.90;;
17504;SDS011;8870;50.950;11.762;2023-02-17T06:53:57;4.82;;;4.00;;
17504;SDS011;8870;50.950;11.762;2023-02-17T06:59:18;4.28;;;3.83;;
17504;SDS011;8870;50.950;11.762;2023-02-17T07:04:49;3.83;;;3.47;;
17504;SDS011;8870;50.950;11.762;2023-02-17T07:10:21;4.25;;;3.78;;
17504;SDS011;8870;50.950;11.762;2023-02-17T07:15:42;4.07;;;3.67;;
17504;SDS011;8870;50.950;11.762;2023-02-17T07:21:13;3.50;;;3.20;;
17504;SDS011;8870;50.950;11.762;2023-02-17T07:26:33;3.78;;;3.35;;
17504;SDS011;8870;50.950;11.762;2023-02-17T07:32:08;5.18;;;3.20;;
17504;SDS011;8870;50.950;11.762;2023-02-17T07:37:26;3.50;;;3.20;;
17504;SDS011;8870;50.950;11.762;2023-02-17T07:42:57;3.28;;;2.92;;
17504;SDS011;8870;50.950;11.762;2023-02-17T07:48:18;2.60;;;2.40;;
17504;SDS011;8870;50.950;11.762;2023-02-17T07:53:50;2.30;;;2.10;;
17504;SDS011;8870;50.950;11.762;2023-02-17T07:59:09;2.35;;;2.15;;
17504;SDS011;8870;50.950;11.762;2023-02-17T08:04:43;2.38;;;1.90;;
17504;SDS011;8870;50.950;11.762;2023-02-17T08:10:14;2.60;;;2.00;;
17504;SDS011;8870;50.950;11.762;2023-02-17T08:15:46;1.63;;;1.50;;
17504;SDS011;8870;50.950;11.762;2023-02-17T08:21:19;1.77;;;1.67;;
17504;SDS011;8870;50.950;11.762;2023-02-17T08:26:38;1.88;;;1.65;;
17504;SDS011;8870;50.950;11.762;2023-02-17T08:32:11;2.08;;;1.60;;
17504;SDS011;8870;50.950;11.762;2023-02-17T08:37:33;1.70;;;1.60;;
17504;SDS011;8870;50.950;11.762;2023-02-17T08:43:05;3.28;;;1.35;;
17504;SDS011;8870;50.950;11.762;2023-02-17T08:48:24;2.00;;;1.60;;
17504;SDS011;8870;50.950;11.762;2023-02-17T08:53:58;1.60;;;1.50;;
17504;SDS011;8870;50.950;11.762;2023-02-17T08:59:17;1.50;;;1.40;;
17504;SDS011;8870;50.950;11.762;2023-02-17T09:04:49;1.48;;;1.20;;
17504;SDS011;8870;50.950;11.762;2023-02-17T09:10:22;1.27;;;1.20;;
17504;SDS011;8870;50.950;11.762;2023-02-17T09:15:41;1.83;;;1.40;;
17504;SDS011;8870;50.950;11.762;2023-02-17T09:21:15;1.23;;;1.20;;
17504;SDS011;8870;50.950;11.762;2023-02-17T09:26:36;1.75;;;1.25;;
17504;SDS011;8870;50.950;11.762;2023-02-17T09:32:08;1.42;;;1.33;;
17504;SDS011;8870;50.950;11.762;2023-02-17T09:37:26;1.33;;;1.23;;
17504;SDS011;8870;50.950;11.762;2023-02-17T09:42:59;1.20;;;1.10;;
17504;SDS011;8870;50.950;11.762;2023-02-17T09:48:19;1.77;;;1.20;;
17504;SDS011;8870;50.950;11.762;2023-02-17T09:53:57;1.10;;;1.00;;
17504;SDS011;8870;50.950;11.762;2023-02-17T09:59:24;1.45;;;1.15;;
17504;SDS011;8870;50.950;11.762;2023-02-17T10:05:02;1.20;;;1.05;;
17504;SDS011;8870;50.950;11.762;2023-02-17T10:10:39;0.93;;;0.90;;
17504;SDS011;8870;50.950;11.762;2023-02-17T10:16:19;2.50;;;1.05;;
17504;SDS011;8870;50.950;11.762;2023-02-17T10:21:41;0.82;;;0.80;;
17504;SDS011;8870;50.950;11.762;2023-02-17T10:27:35;1.00;;;0.90;;
17504;SDS011;8870;50.950;11.762;2023-02-17T10:33:05;0.63;;;0.63;;
17504;SDS011;8870;50.950;11.762;2023-02-17T10:38:46;0.80;;;0.80;;
17504;SDS011;8870;50.950;11.762;2023-02-17T10:44:10;0.95;;;0.95;;
17504;SDS011;8870;50.950;11.762;2023-02-17T10:49:48;1.00;;;0.82;;
17504;SDS011;8870;50.950;11.762;2023-02-17T10:55:08;0.80;;;0.80;;
17504;SDS011;8870;50.950;11.762;2023-02-17T11:00:51;1.52;;;1.00;;
17504;SDS011;8870;50.950;11.762;2023-02-17T11:06:17;0.80;;;0.75;;
17504;SDS011;8870;50.950;11.762;2023-02-17T11:11:52;1.00;;;0.80;;
17504;SDS011;8870;50.950;11.762;2023-02-17T11:17:17;1.27;;;0.98;;
17504;SDS011;8870;50.950;11.762;2023-02-17T11:22:59;0.80;;;0.80;;
17504;SDS011;8870;50.950;11.762;2023-02-17T11:28:29;0.80;;;0.80;;
17504;SDS011;8870;50.950;11.762;2023-02-17T11:33:47;0.70;;;0.70;;
17504;SDS011;8870;50.950;11.762;2023-02-17T11:39:20;0.70;;;0.70;;
17504;SDS011;8870;50.950;11.762;2023-02-17T11:44:39;0.60;;;0.60;;
17504;SDS011;8870;50.950;11.762;2023-02-17T11:50:19;0.55;;;0.50;;
17504;SDS011;8870;50.950;11.762;2023-02-17T11:55:53;0.88;;;0.52;;
17504;SDS011;8870;50.950;11.762;2023-02-17T12:01:37;0.50;;;0.50;;
17504;SDS011;8870;50.950;11.762;2023-02-17T12:07:19;0.50;;;0.50;;
17504;SDS011;8870;50.950;11.762;2023-02-17T12:13:23;0.40;;;0.40;;
17504;SDS011;8870;50.950;11.762;2023-02-17T12:18:49;0.98;;;0.50;;
17504;SDS011;8870;50.950;11.762;2023-02-17T12:24:39;1.45;;;0.57;;
17504;SDS011;8870;50.950;11.762;2023-02-17T12:30:13;0.82;;;0.57;;
17504;SDS011;8870;50.950;11.762;2023-02-17T12:35:53;0.50;;;0.50;;
17504;SDS011;8870;50.950;11.762;2023-02-17T12:41:15;1.02;;;0.70;;
17504;SDS011;8870;50.950;11.762;2023-02-17T12:46:52;0.70;;;0.70;;
17504;SDS011;8870;50.950;11.762;2023-02-17T12:52:15;0.50;;;0.50;;
17504;SDS011;8870;50.950;11.762;2023-02-17T12:57:49;0.60;;;0.50;;
17504;SDS011;8870;50.950;11.762;2023-02-17T13:03:21;0.40;;;0.40;;
17504;SDS011;8870;50.950;11.762;2023-02-17T13:08:53;1.30;;;0.60;;
17504;SDS011;8870;50.950;11.762;2023-02-17T13:14:23;0.43;;;0.43;;
17504;SDS011;8870;50.950;11.762;2023-02-17T13:20:05;0.40;;;0.40;;
17504;SDS011;8870;50.950;11.762;2023-02-17T13:25:41;0.30;;;0.30;;
17504;SDS011;8870;50.950;11.762;2023-02-17T13:31:14;0.40;;;0.40;;
17504;SDS011;8870;50.950;11.762;2023-02-17T13:36:37;1.02;;;0.50;;
17504;SDS011;8870;50.950;11.762;2023-02-17T13:47:53;0.53;;;0.40;;
17504;SDS011;8870;50.950;11.762;2023-02-17T13:53:30;0.32;;;0.32;;
17504;SDS011;8870;50.950;11.762;2023-02-17T13:58:49;0.38;;;0.30;;
17504;SDS011;8870;50.950;11.762;2023-02-17T14:04:20;0.70;;;0.40;;
17504;SDS011;8870;50.950;11.762;2023-02-17T14:09:56;0.50;;;0.50;;
17504;SDS011;8870;50.950;11.762;2023-02-17T14:15:15;0.52;;;0.40;;
17504;SDS011;8870;50.950;11.762;2023-02-17T14:20:48;0.52;;;0.40;;
17504;SDS011;8870;50.950;11.762;2023-02-17T14:26:26;0.55;;;0.50;;
17504;SDS011;8870;50.950;11.762;2023-02-17T14:37:48;0.63;;;0.50;;
17504;SDS011;8870;50.950;11.762;2023-02-17T14:43:21;0.32;;;0.32;;
17504;SDS011;8870;50.950;11.762;2023-02-17T14:48:40;0.40;;;0.40;;
17504;SDS011;8870;50.950;11.762;2023-02-17T14:54:11;0.43;;;0.43;;
17504;SDS011;8870;50.950;11.762;2023-02-17T14:59:36;0.47;;;0.45;;
17504;SDS011;8870;50.950;11.762;2023-02-17T15:05:09;0.40;;;0.40;;
17504;SDS011;8870;50.950;11.762;2023-02-17T15:10:40;0.50;;;0.40;;
17504;SDS011;8870;50.950;11.762;2023-02-17T15:16:01;0.40;;;0.40;;
17504;SDS011;8870;50.950;11.762;2023-02-17T15:21:34;0.40;;;0.40;;
17504;SDS011;8870;50.950;11.762;2023-02-17T15:26:54;0.80;;;0.50;;
17504;SDS011;8870;50.950;11.762;2023-02-17T15:32:28;0.55;;;0.43;;
17504;SDS011;8870;50.950;11.762;2023-02-17T15:37:47;0.50;;;0.50;;
17504;SDS011;8870;50.950;11.762;2023-02-17T15:43:20;0.40;;;0.40;;
17504;SDS011;8870;50.950;11.762;2023-02-17T15:48:42;0.68;;;0.40;;
17504;SDS011;8870;50.950;11.762;2023-02-17T15:54:14;0.30;;;0.30;;
17504;SDS011;8870;50.950;11.762;2023-02-17T15:59:33;0.38;;;0.30;;
17504;SDS011;8870;50.950;11.762;2023-02-17T16:05:08;0.47;;;0.30;;
17504;SDS011;8870;50.950;11.762;2023-02-17T16:10:41;0.98;;;0.40;;
17504;SDS011;8870;50.950;11.762;2023-02-17T16:16:00;0.40;;;0.40;;
17504;SDS011;8870;50.950;11.762;2023-02-17T16:21:34;0.77;;;0.32;;
17504;SDS011;8870;50.950;11.762;2023-02-17T16:26:53;0.30;;;0.30;;
17504;SDS011;8870;50.950;11.762;2023-02-17T16:32:24;0.30;;;0.30;;
17504;SDS011;8870;50.950;11.762;2023-02-17T16:37:47;0.40;;;0.40;;
17504;SDS011;8870;50.950;11.762;2023-02-17T16:43:22;0.32;;;0.32;;
17504;SDS011;8870;50.950;11.762;2023-02-17T16:48:44;0.40;;;0.35;;
17504;SDS011;8870;50.950;11.762;2023-02-17T16:54:22;0.30;;;0.30;;
17504;SDS011;8870;50.950;11.762;2023-02-17T16:59:43;1.20;;;0.38;;
17504;SDS011;8870;50.950;11.762;2023-02-17T17:05:16;0.40;;;0.40;;
17504;SDS011;8870;50.950;11.762;2023-02-17T17:10:51;0.40;;;0.40;;
17504;SDS011;8870;50.950;11.762;2023-02-17T17:16:10;1.45;;;0.40;;
17504;SDS011;8870;50.950;11.762;2023-02-17T17:21:43;1.40;;;0.47;;
17504;SDS011;8870;50.950;11.762;2023-02-17T17:27:05;0.90;;;0.30;;
17504;SDS011;8870;50.950;11.762;2023-02-17T17:32:37;1.60;;;0.40;;
17504;SDS011;8870;50.950;11.762;2023-02-17T17:37:55;0.30;;;0.30;;
17504;SDS011;8870;50.950;11.762;2023-02-17T17:43:37;0.47;;;0.40;;
17504;SDS011;8870;50.950;11.762;2023-02-17T17:48:57;0.45;;;0.45;;
17504;SDS011;8870;50.950;11.762;2023-02-17T17:54:31;0.40;;;0.38;;
17504;SDS011;8870;50.950;11.762;2023-02-17T17:59:52;0.70;;;0.63;;
17504;SDS011;8870;50.950;11.762;2023-02-17T18:05:23;1.48;;;0.70;;
17504;SDS011;8870;50.950;11.762;2023-02-17T18:10:54;0.93;;;0.60;;
17504;SDS011;8870;50.950;11.762;2023-02-17T18:16:15;0.68;;;0.60;;
17504;SDS011;8870;50.950;11.762;2023-02-17T18:21:49;0.82;;;0.80;;
17504;SDS011;8870;50.950;11.762;2023-02-17T18:27:07;0.82;;;0.65;;
17504;SDS011;8870;50.950;11.762;2023-02-17T18:32:40;1.02;;;0.80;;
17504;SDS011;8870;50.950;11.762;2023-02-17T18:37:59;0.80;;;0.70;;
17504;SDS011;8870;50.950;11.762;2023-02-17T18:43:30;0.90;;;0.73;;
17504;SDS011;8870;50.950;11.762;2023-02-17T18:48:52;1.45;;;0.90;;
17504;SDS011;8870;50.950;11.762;2023-02-17T18:54:25;0.60;;;0.60;;
17504;SDS011;8870;50.950;11.762;2023-02-17T18:59:44;1.67;;;1.00;;
17504;SDS011;8870;50.950;11.762;2023-02-17T19:05:19;1.45;;;1.10;;
17504;SDS011;8870;50.950;11.762;2023-02-17T19:10:52;1.40;;;1.30;;
17504;SDS011;8870;50.950;11.762;2023-02-17T19:16:11;1.40;;;1.05;;
17504;SDS011;8870;50.950;11.762;2023-02-17T19:21:48;1.30;;;1.10;;
17504;SDS011;8870;50.950;11.762;2023-02-17T19:27:07;1.70;;;1.27;;
17504;SDS011;8870;50.950;11.762;2023-02-17T19:32:40;3.00;;;1.60;;
17504;SDS011;8870;50.950;11.762;2023-02-17T19:38:00;1.70;;;1.60;;
17504;SDS011;8870;50.950;11.762;2023-02-17T19:43:32;2.05;;;1.50;;
17504;SDS011;8870;50.950;11.762;2023-02-17T19:48:50;1.80;;;1.40;;
17504;SDS011;8870;50.950;11.762;2023-02-17T19:54:23;1.38;;;1.20;;
17504;SDS011;8870;50.950;11.762;2023-02-17T19:59:42;1.45;;;1.20;;
17504;SDS011;8870;50.950;11.762;2023-02-17T20:05:14;1.63;;;1.40;;
17504;SDS011;8870;50.950;11.762;2023-02-17T20:10:47;1.33;;;1.20;;
17504;SDS011;8870;50.950;11.762;2023-02-17T20:16:07;1.83;;;1.20;;
17504;SDS011;8870;50.950;11.762;2023-02-17T20:21:40;2.25;;;1.25;;
17504;SDS011;8870;50.950;11.762;2023-02-17T20:27:01;1.15;;;1.15;;
17504;SDS011;8870;50.950;11.762;2023-02-17T20:32:32;1.40;;;1.10;;
17504;SDS011;8870;50.950;11.762;2023-02-17T20:37:50;1.25;;;1.10;;
17504;SDS011;8870;50.950;11.762;2023-02-17T20:43:24;1.33;;;1.00;;
17504;SDS011;8870;50.950;11.762;2023-02-17T20:48:42;2.08;;;1.10;;
17504;SDS011;8870;50.950;11.762;2023-02-17T20:54:13;1.50;;;1.00;;
17504;SDS011;8870;50.950;11.762;2023-02-17T20:59:34;1.50;;;1.00;;
17504;SDS011;8870;50.950;11.762;2023-02-17T21:05:06;1.20;;;1.10;;
17504;SDS011;8870;50.950;11.762;2023-02-17T21:10:25;4.13;;;1.20;;
17504;SDS011;8870;50.950;11.762;2023-02-17T21:16:03;1.00;;;0.90;;
17504;SDS011;8870;50.950;11.762;2023-02-17T21:21:21;1.85;;;0.90;;
17504;SDS011;8870;50.950;11.762;2023-02-17T21:26:54;1.70;;;0.90;;
17504;SDS011;8870;50.950;11.762;2023-02-17T21:32:15;2.35;;;1.10;;
17504;SDS011;8870;50.950;11.762;2023-02-17T21:37:47;1.27;;;0.90;;
17504;SDS011;8870;50.950;11.762;2023-02-17T21:43:05;0.93;;;0.75;;
17504;SDS011;8870;50.950;11.762;2023-02-17T21:48:51;0.80;;;0.70;;
17504;SDS011;8870;50.950;11.762;2023-02-17T21:54:10;0.90;;;0.80;;
17504;SDS011;8870;50.950;11.762;2023-02-17T21:59:42;0.90;;;0.90;;
17504;SDS011;8870;50.950;11.762;2023-02-17T22:05:03;2.00;;;1.05;;
17504;SDS011;8870;50.950;11.762;2023-02-17T22:10:35;1.40;;;0.98;;
17504;SDS011;8870;50.950;11.762;2023-02-17T22:15:56;2.67;;;1.00;;
17504;SDS011;8870;50.950;11.762;2023-02-17T22:21:30;1.38;;;1.20;;
17504;SDS011;8870;50.950;11.762;2023-02-17T22:26:49;1.95;;;1.10;;
17504;SDS011;8870;50.950;11.762;2023-02-17T22:32:20;2.30;;;1.13;;
17504;SDS011;8870;50.950;11.762;2023-02-17T22:37:41;1.77;;;1.00;;
17504;SDS011;8870;50.950;11.762;2023-02-17T22:43:12;1.42;;;1.20;;
17504;SDS011;8870;50.950;11.762;2023-02-17T22:48:30;1.17;;;1.08;;
17504;SDS011;8870;50.950;11.762;2023-02-17T22:54:06;2.20;;;1.30;;
17504;SDS011;8870;50.950;11.762;2023-02-17T22:59:24;2.35;;;1.25;;
17504;SDS011;8870;50.950;11.762;2023-02-17T23:04:56;1.73;;;1.30;;
17504;SDS011;8870;50.950;11.762;2023-02-17T23:10:17;2.17;;;1.27;;
17504;SDS011;8870;50.950;11.762;2023-02-17T23:15:49;2.35;;;1.63;;
17504;SDS011;8870;50.950;11.762;2023-02-17T23:21:08;2.05;;;1.70;;
17504;SDS011;8870;50.950;11.762;2023-02-17T23:26:43;2.47;;;2.00;;
17504;SDS011;8870;50.950;11.762;2023-02-17T23:32:01;3.40;;;2.75;;
17504;SDS011;8870;50.950;11.762;2023-02-17T23:37:32;4.30;;;3.53;;
17504;SDS011;8870;50.950;11.762;2023-02-17T23:42:53;4.78;;;3.95;;
17504;SDS011;8870;50.950;11.762;2023-02-17T23:48:26;6.10;;;4.70;;
17504;SDS011;8870;50.950;11.762;2023-02-17T23:53:44;5.90;;;4.80;;
17504;SDS011;8870;50.950;11.762;2023-02-17T23:59:18;7.05;;;4.97;;
